Time;durP1;ratioP1;P1;durP2;ratioP2;P2;SDS_P1;SDS_P2;PMS_P1;PMS_P2;Temp;Humidity;BMP_temperature;BMP_pressure;BME280_temperature;BME280_humidity;BME280_pressure;Samples;Min_cycle;Max_cycle;Signal;HPM_P1;HPM_P2
2023/04/15 00:00:07;;;;;;;;;;;10.80;99.90;11.00;98690.00;;;;338743;28;91956;-87
2023/04/15 00:00:19;;;;;;;;;;;10.80;99.90;11.00;98689.00;;;;339024;28;93397;-87
2023/04/15 00:00:32;;;;;;;;;;;10.80;99.90;11.10;98696.00;;;;338432;28;92118;-87
2023/04/15 00:00:44;;;;;;;;;;;10.80;99.90;11.00;98685.00;;;;339045;28;95893;-87
2023/04/15 00:00:58;;;;;;;;;;;10.80;99.90;11.00;98683.00;;;;341500;28;91989;-87
2023/04/15 00:01:10;;;;;;;;;;;10.80;99.90;11.00;98689.00;;;;337598;28;96068;-87
2023/04/15 00:01:22;;;;;;;;;;;10.80;99.90;11.00;98690.00;;;;338614;28;93054;-88
2023/04/15 00:01:35;;;;;;;;;;;10.80;99.90;10.90;98682.00;;;;338952;28;96914;-87
2023/04/15 00:01:48;;;;;;;;;;;10.80;99.90;11.00;98682.00;;;;338658;28;92163;-87
2023/04/15 00:01:59;;;;;;;;;;;10.80;99.90;11.00;98690.00;;;;337653;28;94292;-87
2023/04/15 00:02:17;;;;;;;;;;;10.70;99.90;11.10;98690.00;;;;340050;28;92161;-87
2023/04/15 00:02:30;;;;;;;;;;;10.80;99.90;11.10;98683.00;;;;337634;28;93939;-87
2023/04/15 00:02:43;;;;;;;;;;;10.80;99.90;11.10;98686.00;;;;336261;28;91906;-87
2023/04/15 00:02:55;;;;;;;;;;;10.70;99.90;11.00;98685.00;;;;339029;28;94852;-87
2023/04/15 00:03:08;;;;;;;;;;;10.80;99.90;11.10;98690.00;;;;339943;28;92037;-87
2023/04/15 00:03:20;;;;;;;;;;;10.80;99.90;11.10;98686.00;;;;337631;28;96048;-86
2023/04/15 00:03:33;;;;;;;;;;;10.80;99.90;11.10;98684.00;;;;341301;28;92825;-87
2023/04/15 00:03:46;;;;;;;;;;;10.70;99.90;11.20;98684.00;;;;338937;28;94548;-86
2023/04/15 00:03:58;;;;;;;;;;;10.70;99.90;11.20;98682.00;;;;338756;28;91962;-87
2023/04/15 00:04:10;;;;;;;;;;;10.80;99.90;11.10;98689.00;;;;340240;28;95520;-87
2023/04/15 00:04:22;;;;;;;;;;;10.80;99.90;11.20;98687.00;;;;338652;28;92084;-87
2023/04/15 00:04:36;;;;;;;;;;;10.80;99.90;11.10;98683.00;;;;340269;28;95643;-87
2023/04/15 00:04:48;;;;;;;;;;;10.80;99.90;11.00;98684.00;;;;338684;28;91158;-87
2023/04/15 00:05:00;;;;;;;;;;;10.80;99.90;11.00;98681.00;;;;337752;28;96244;-87
2023/04/15 00:05:12;;;;;;;;;;;10.80;99.90;11.10;98682.00;;;;337419;28;92061;-87
2023/04/15 00:05:23;;;;;;;;;;;10.80;99.90;11.10;98679.00;;;;338945;28;94642;-87
2023/04/15 00:05:36;;;;;;;;;;;10.80;99.90;11.10;98684.00;;;;338636;28;93016;-87
2023/04/15 00:05:48;;;;;;;;;;;10.80;99.90;11.10;98682.00;;;;337596;28;96490;-87
2023/04/15 00:06:00;;;;;;;;;;;10.80;99.90;11.00;98688.00;;;;341572;28;91809;-87
2023/04/15 00:06:12;;;;;;;;;;;10.80;99.90;10.90;98683.00;;;;341695;28;93433;-87
2023/04/15 00:06:25;;;;;;;;;;;10.80;99.90;11.00;98680.00;;;;338683;28;92032;-87
2023/04/15 00:06:38;;;;;;;;;;;10.80;99.90;11.20;98671.00;;;;340375;28;93404;-87
2023/04/15 00:06:51;;;;;;;;;;;10.80;99.90;11.20;98691.00;;;;340076;28;91970;-87
2023/04/15 00:07:03;;;;;;;;;;;10.80;99.90;11.10;98684.00;;;;338970;28;95169;-87
2023/04/15 00:07:16;;;;;;;;;;;10.80;99.90;11.00;98683.00;;;;337433;28;91957;-87
2023/04/15 00:07:28;;;;;;;;;;;10.80;99.90;11.00;98681.00;;;;340354;28;94372;-87
2023/04/15 00:07:40;;;;;;;;;;;10.80;99.90;11.00;98690.00;;;;336063;28;92971;-87
2023/04/15 00:07:52;;;;;;;;;;;10.80;99.90;11.00;98686.00;;;;337573;28;96592;-87
2023/04/15 00:08:05;;;;;;;;;;;10.80;99.90;11.00;98688.00;;;;340178;28;91865;-87
2023/04/15 00:08:17;;;;;;;;;;;10.80;99.90;11.10;98697.00;;;;337601;28;95677;-87
2023/04/15 00:08:29;;;;;;;;;;;10.80;99.90;11.20;98687.00;;;;338640;28;92153;-87
2023/04/15 00:08:41;;;;;;;;;;;10.80;99.90;11.20;98691.00;;;;338480;28;96082;-87
2023/04/15 00:08:53;;;;;;;;;;;10.80;99.90;11.10;98686.00;;;;337353;28;91255;-87
2023/04/15 00:09:05;;;;;;;;;;;10.80;99.90;11.20;98693.00;;;;339067;28;92634;-87
2023/04/15 00:09:16;;;;;;;;;;;10.80;99.90;11.10;98693.00;;;;337546;28;91943;-87
2023/04/15 00:09:28;;;;;;;;;;;10.80;99.90;11.10;98687.00;;;;340339;28;94684;-87
2023/04/15 00:09:41;;;;;;;;;;;10.80;99.90;11.20;98685.00;;;;339942;28;92970;-87
2023/04/15 00:09:55;;;;;;;;;;;10.80;99.90;11.20;98688.00;;;;340329;28;94123;-87
2023/04/15 00:10:07;;;;;;;;;;;10.80;99.90;11.10;98691.00;;;;337422;28;92094;-87
2023/04/15 00:10:19;;;;;;;;;;;10.80;99.90;11.10;98689.00;;;;338834;28;95836;-86
2023/04/15 00:10:30;;;;;;;;;;;10.80;99.90;11.20;98687.00;;;;336119;28;91913;-87
2023/04/15 00:10:43;;;;;;;;;;;10.80;99.90;11.20;98685.00;;;;338992;28;93327;-87
2023/04/15 00:10:55;;;;;;;;;;;10.70;99.90;11.10;98688.00;;;;337411;28;92014;-87
2023/04/15 00:11:07;;;;;;;;;;;10.80;99.90;11.00;98680.00;;;;341681;28;92478;-87
2023/04/15 00:11:19;;;;;;;;;;;10.80;99.90;11.00;98685.00;;;;336076;28;91972;-87
2023/04/15 00:11:30;;;;;;;;;;;10.70;99.90;11.00;98691.00;;;;339024;28;93288;-87
2023/04/15 00:11:42;;;;;;;;;;;10.70;99.90;11.00;98682.00;;;;339993;28;92726;-87
2023/04/15 00:11:54;;;;;;;;;;;10.80;99.90;10.90;98682.00;;;;337688;28;94475;-87
2023/04/15 00:12:06;;;;;;;;;;;10.70;99.90;11.00;98686.00;;;;338770;28;91142;-87
2023/04/15 00:12:18;;;;;;;;;;;10.70;99.90;11.00;98689.00;;;;338933;28;95720;-87
2023/04/15 00:12:30;;;;;;;;;;;10.70;99.90;11.00;98691.00;;;;336162;28;92059;-87
2023/04/15 00:12:42;;;;;;;;;;;10.70;99.90;11.20;98687.00;;;;336347;28;95228;-87
2023/04/15 00:12:54;;;;;;;;;;;10.80;99.90;11.20;98690.00;;;;337420;28;91994;-87
2023/04/15 00:13:06;;;;;;;;;;;10.80;99.90;11.30;98689.00;;;;340216;28;94460;-87
2023/04/15 00:13:17;;;;;;;;;;;10.80;99.90;11.30;98688.00;;;;340034;28;92010;-87
2023/04/15 00:13:29;;;;;;;;;;;10.80;99.90;11.20;98687.00;;;;337682;28;93027;-87
2023/04/15 00:13:42;;;;;;;;;;;10.80;99.90;11.10;98684.00;;;;337270;28;92902;-87
2023/04/15 00:13:53;;;;;;;;;;;10.80;99.90;11.20;98686.00;;;;335010;29;96775;-87
2023/04/15 00:14:06;;;;;;;;;;;10.80;99.90;11.30;98678.00;;;;334913;29;91858;-87
2023/04/15 00:14:18;;;;;;;;;;;10.80;99.90;11.20;98683.00;;;;333616;29;96869;-87
2023/04/15 00:14:30;;;;;;;;;;;10.80;99.90;11.30;98677.00;;;;338707;28;92147;-87
2023/04/15 00:14:42;;;;;;;;;;;10.80;99.90;11.20;98680.00;;;;338994;28;92857;-87
2023/04/15 00:14:55;;;;;;;;;;;10.80;99.90;11.20;98680.00;;;;337389;28;91966;-87
2023/04/15 00:15:08;;;;;;;;;;;10.80;99.90;11.10;98686.00;;;;338990;28;92171;-87
2023/04/15 00:15:20;;;;;;;;;;;10.80;99.90;11.00;98687.00;;;;338883;28;91108;-87
2023/04/15 00:15:31;;;;;;;;;;;10.80;99.90;11.00;98682.00;;;;338965;28;93642;-87
2023/04/15 00:15:43;;;;;;;;;;;10.80;99.90;10.90;98683.00;;;;336953;28;92957;-87
2023/04/15 00:15:55;;;;;;;;;;;10.80;99.90;10.90;98690.00;;;;335426;28;95550;-86
2023/04/15 00:16:07;;;;;;;;;;;10.80;99.90;11.00;98692.00;;;;338688;28;92012;-86
2023/04/15 00:16:19;;;;;;;;;;;10.80;99.90;11.00;98691.00;;;;337735;28;94640;-87
2023/04/15 00:16:31;;;;;;;;;;;10.70;99.90;11.00;98688.00;;;;337362;28;91276;-86
2023/04/15 00:16:43;;;;;;;;;;;10.80;99.90;11.00;98690.00;;;;336144;28;93563;-87
2023/04/15 00:16:56;;;;;;;;;;;10.80;99.90;11.00;98691.00;;;;337470;28;91200;-87
2023/04/15 00:17:08;;;;;;;;;;;10.70;99.90;11.00;98688.00;;;;335742;28;95949;-87
2023/04/15 00:17:19;;;;;;;;;;;10.70;99.90;10.90;98679.00;;;;338821;28;92308;-87
2023/04/15 00:17:31;;;;;;;;;;;10.70;99.90;11.10;98697.00;;;;338968;28;96108;-87
2023/04/15 00:17:43;;;;;;;;;;;10.70;99.90;11.10;98687.00;;;;340018;28;93002;-87
2023/04/15 00:17:55;;;;;;;;;;;10.70;99.90;11.20;98681.00;;;;337670;28;94790;-86
2023/04/15 00:18:07;;;;;;;;;;;10.70;99.90;11.20;98681.00;;;;338831;28;91852;-87
2023/04/15 00:18:19;;;;;;;;;;;10.70;99.90;11.20;98686.00;;;;339069;28;93631;-87
2023/04/15 00:18:31;;;;;;;;;;;10.70;99.90;11.30;98684.00;;;;340007;28;92032;-87
2023/04/15 00:18:43;;;;;;;;;;;10.80;99.90;11.40;98674.00;;;;337660;28;96073;-87
2023/04/15 00:18:55;;;;;;;;;;;10.80;99.90;11.40;98686.00;;;;340227;28;91883;-87
2023/04/15 00:19:07;;;;;;;;;;;10.80;99.90;11.40;98683.00;;;;338938;28;93876;-87
2023/04/15 00:19:19;;;;;;;;;;;10.80;99.90;11.30;98683.00;;;;338845;28;91113;-88
2023/04/15 00:19:32;;;;;;;;;;;10.80;99.90;11.30;98675.00;;;;338932;28;96091;-87
2023/04/15 00:19:44;;;;;;;;;;;10.80;99.90;11.30;98688.00;;;;340007;28;92980;-87
2023/04/15 00:19:58;;;;;;;;;;;10.80;99.90;11.30;98687.00;;;;339164;28;92876;-88
2023/04/15 00:20:10;;;;;;;;;;;10.80;99.90;11.20;98685.00;;;;337345;28;91978;-87
2023/04/15 00:20:22;;;;;;;;;;;10.80;99.90;11.10;98690.00;;;;337756;28;93449;-87
2023/04/15 00:20:34;;;;;;;;;;;10.80;99.90;11.10;98685.00;;;;338783;28;91108;-87
2023/04/15 00:20:46;;;;;;;;;;;10.80;99.90;11.20;98685.00;;;;337732;28;94955;-87
2023/04/15 00:20:58;;;;;;;;;;;10.80;99.90;11.00;98688.00;;;;340204;28;91955;-87
2023/04/15 00:21:10;;;;;;;;;;;10.80;99.90;11.00;98683.00;;;;336375;28;95144;-88
2023/04/15 00:21:22;;;;;;;;;;;10.70;99.90;10.90;98686.00;;;;336129;28;91949;-87
2023/04/15 00:21:34;;;;;;;;;;;10.80;99.90;11.00;98679.00;;;;337646;28;95882;-86
2023/04/15 00:21:46;;;;;;;;;;;10.70;99.90;11.00;98695.00;;;;337553;28;92133;-87
2023/04/15 00:21:59;;;;;;;;;;;10.70;99.90;11.10;98688.00;;;;339060;28;94347;-87
2023/04/15 00:22:11;;;;;;;;;;;10.70;99.90;11.30;98684.00;;;;338707;28;92067;-87
2023/04/15 00:22:23;;;;;;;;;;;10.70;99.90;11.20;98680.00;;;;337627;28;94824;-87
2023/04/15 00:22:35;;;;;;;;;;;10.80;99.90;11.20;98675.00;;;;340126;28;91901;-87
2023/04/15 00:22:47;;;;;;;;;;;10.70;99.90;11.10;98686.00;;;;338966;28;95821;-87
2023/04/15 00:22:59;;;;;;;;;;;10.70;99.90;11.10;98674.00;;;;337493;28;91920;-86
2023/04/15 00:23:11;;;;;;;;;;;10.80;99.90;11.10;98685.00;;;;336232;28;96222;-87
2023/04/15 00:23:23;;;;;;;;;;;10.80;99.90;11.10;98680.00;;;;337455;28;92010;-87
2023/04/15 00:23:35;;;;;;;;;;;10.70;99.90;11.20;98682.00;;;;336392;28;93062;-87
2023/04/15 00:23:51;;;;;;;;;;;10.70;99.90;11.30;98679.00;;;;335993;28;92225;-87
2023/04/15 00:24:03;;;;;;;;;;;10.80;99.90;11.30;98676.00;;;;337645;28;97300;-86
2023/04/15 00:24:15;;;;;;;;;;;10.80;99.90;11.40;98674.00;;;;337386;28;91154;-87
2023/04/15 00:24:27;;;;;;;;;;;10.80;99.90;11.30;98675.00;;;;337643;28;93529;-87
2023/04/15 00:24:38;;;;;;;;;;;10.80;99.90;11.20;98685.00;;;;337471;28;92046;-87
2023/04/15 00:24:51;;;;;;;;;;;10.80;99.90;11.20;98685.00;;;;337716;28;93535;-87
2023/04/15 00:25:04;;;;;;;;;;;10.80;99.90;11.10;98690.00;;;;337402;28;91919;-87
2023/04/15 00:25:16;;;;;;;;;;;10.80;99.90;11.10;98691.00;;;;338999;28;95804;-87
2023/04/15 00:25:27;;;;;;;;;;;10.80;99.90;11.10;98683.00;;;;337494;28;92050;-87
2023/04/15 00:25:39;;;;;;;;;;;10.80;99.90;11.10;98685.00;;;;336501;28;93730;-87
2023/04/15 00:25:51;;;;;;;;;;;10.80;99.90;11.10;98683.00;;;;338665;28;93105;-87
2023/04/15 00:26:03;;;;;;;;;;;10.80;99.90;11.00;98687.00;;;;337707;28;94123;-87
2023/04/15 00:26:15;;;;;;;;;;;10.80;99.90;11.00;98680.00;;;;338706;28;91222;-87
2023/04/15 00:26:27;;;;;;;;;;;10.80;99.90;11.00;98683.00;;;;336310;28;93754;-87
2023/04/15 00:26:39;;;;;;;;;;;10.70;99.90;11.10;98673.00;;;;336126;28;91119;-87
2023/04/15 00:26:50;;;;;;;;;;;10.70;99.90;11.10;98687.00;;;;337604;28;94779;-87
2023/04/15 00:27:03;;;;;;;;;;;10.70;99.90;11.10;98682.00;;;;338785;28;91988;-87
2023/04/15 00:27:15;;;;;;;;;;;10.70;99.90;11.10;98681.00;;;;337599;28;95825;-87
2023/04/15 00:27:27;;;;;;;;;;;10.70;99.90;11.10;98687.00;;;;338876;28;91020;-87
2023/04/15 00:27:39;;;;;;;;;;;10.80;99.90;11.10;98681.00;;;;336445;28;93525;-87
2023/04/15 00:27:51;;;;;;;;;;;10.70;99.90;11.00;98675.00;;;;337284;28;93020;-87
2023/04/15 00:28:03;;;;;;;;;;;10.70;99.90;11.10;98689.00;;;;336500;28;94349;-87
2023/04/15 00:28:15;;;;;;;;;;;10.70;99.90;11.00;98691.00;;;;334796;29;92013;-87
2023/04/15 00:28:27;;;;;;;;;;;10.70;99.90;11.00;98693.00;;;;340289;28;92671;-88
2023/04/15 00:28:39;;;;;;;;;;;10.70;99.90;11.00;98684.00;;;;337415;28;91905;-88
2023/04/15 00:28:50;;;;;;;;;;;10.70;99.90;11.10;98687.00;;;;337546;28;95375;-87
2023/04/15 00:29:02;;;;;;;;;;;10.70;99.90;11.10;98678.00;;;;337433;28;91905;-87
2023/04/15 00:29:14;;;;;;;;;;;10.70;99.90;11.10;98684.00;;;;337622;28;95250;-87
2023/04/15 00:29:26;;;;;;;;;;;10.70;99.90;11.00;98682.00;;;;337483;28;91951;-87
2023/04/15 00:29:37;;;;;;;;;;;10.70;99.90;11.00;98693.00;;;;340308;28;93773;-87
2023/04/15 00:29:49;;;;;;;;;;;10.70;99.90;11.00;98680.00;;;;338649;28;92870;-87
2023/04/15 00:30:03;;;;;;;;;;;10.70;99.90;11.00;98687.00;;;;340537;28;96792;-87
2023/04/15 00:30:14;;;;;;;;;;;10.70;99.90;11.00;98682.00;;;;337476;28;91058;-87
2023/04/15 00:30:26;;;;;;;;;;;10.70;99.90;10.90;98681.00;;;;336288;28;93764;-87
2023/04/15 00:30:38;;;;;;;;;;;10.70;99.90;10.90;98683.00;;;;337459;28;91939;-87
2023/04/15 00:30:50;;;;;;;;;;;10.70;99.90;11.00;98683.00;;;;337662;28;95965;-86
2023/04/15 00:31:03;;;;;;;;;;;10.70;99.90;11.00;98683.00;;;;340077;28;92000;-87
2023/04/15 00:31:15;;;;;;;;;;;10.70;99.90;11.00;98681.00;;;;338978;28;93442;-87
2023/04/15 00:31:27;;;;;;;;;;;10.70;99.90;11.00;98680.00;;;;338789;28;91873;-87
2023/04/15 00:31:39;;;;;;;;;;;10.70;99.90;11.00;98680.00;;;;339029;28;93356;-87
2023/04/15 00:31:50;;;;;;;;;;;10.70;99.90;11.10;98688.00;;;;337399;28;93313;-87
2023/04/15 00:32:02;;;;;;;;;;;10.70;99.90;11.00;98680.00;;;;339074;28;94437;-87
2023/04/15 00:32:14;;;;;;;;;;;10.70;99.90;11.00;98681.00;;;;338686;28;92024;-87
2023/04/15 00:32:26;;;;;;;;;;;10.70;99.90;11.00;98682.00;;;;340307;28;93401;-87
2023/04/15 00:32:38;;;;;;;;;;;10.70;99.90;10.90;98675.00;;;;341372;28;91991;-87
2023/04/15 00:32:50;;;;;;;;;;;10.70;99.90;10.90;98685.00;;;;337623;28;93711;-87
2023/04/15 00:33:02;;;;;;;;;;;10.70;99.90;11.00;98687.00;;;;337302;28;91898;-87
2023/04/15 00:33:15;;;;;;;;;;;10.60;99.90;10.90;98679.00;;;;338951;28;95724;-87
2023/04/15 00:33:27;;;;;;;;;;;10.70;99.90;10.90;98686.00;;;;337543;28;91857;-88
2023/04/15 00:33:39;;;;;;;;;;;10.60;99.90;10.90;98688.00;;;;338931;28;95983;-87
2023/04/15 00:33:54;;;;;;;;;;;10.60;99.90;10.90;98683.00;;;;341579;28;93041;-87
2023/04/15 00:34:06;;;;;;;;;;;10.60;99.90;10.90;98681.00;;;;337592;28;96457;-88
2023/04/15 00:34:18;;;;;;;;;;;10.60;99.90;11.00;98686.00;;;;338786;28;91058;-87
2023/04/15 00:34:30;;;;;;;;;;;10.60;99.90;11.00;98685.00;;;;338976;28;92876;-87
2023/04/15 00:34:41;;;;;;;;;;;10.60;99.90;11.00;98681.00;;;;337281;28;92088;-87
2023/04/15 00:34:53;;;;;;;;;;;10.60;99.90;11.00;98690.00;;;;337551;28;95833;-88
2023/04/15 00:35:05;;;;;;;;;;;10.60;99.90;11.00;98681.00;;;;338767;28;91948;-88
2023/04/15 00:35:17;;;;;;;;;;;10.70;99.90;10.90;98685.00;;;;337675;28;93350;-88
2023/04/15 00:35:31;;;;;;;;;;;10.70;99.90;11.00;98688.00;;;;337398;28;91193;-87
2023/04/15 00:35:43;;;;;;;;;;;10.60;99.90;10.90;98686.00;;;;341635;28;95944;-88
2023/04/15 00:35:55;;;;;;;;;;;10.60;99.90;10.90;98685.00;;;;337340;28;92983;-87
2023/04/15 00:36:07;;;;;;;;;;;10.60;99.90;10.90;98678.00;;;;337536;28;97520;-87
2023/04/15 00:36:19;;;;;;;;;;;10.60;99.90;10.90;98679.00;;;;338675;28;91934;-87
2023/04/15 00:36:32;;;;;;;;;;;10.60;99.90;10.80;98684.00;;;;338968;28;95815;-87
2023/04/15 00:36:44;;;;;;;;;;;10.60;99.90;10.90;98681.00;;;;339983;28;91953;-87
2023/04/15 00:36:56;;;;;;;;;;;10.60;99.90;10.90;98686.00;;;;340348;28;94683;-87
2023/04/15 00:37:09;;;;;;;;;;;10.70;99.90;10.90;98686.00;;;;339829;28;92090;-87
2023/04/15 00:37:20;;;;;;;;;;;10.60;99.90;10.90;98687.00;;;;340389;28;94761;-87
2023/04/15 00:37:34;;;;;;;;;;;10.60;99.90;10.80;98687.00;;;;340536;28;91889;-88
2023/04/15 00:37:45;;;;;;;;;;;10.60;99.90;10.90;98684.00;;;;341155;28;93512;-87
2023/04/15 00:37:58;;;;;;;;;;;10.60;99.90;10.90;98690.00;;;;340994;28;92111;-87
2023/04/15 00:38:10;;;;;;;;;;;10.60;99.90;10.90;98687.00;;;;341172;28;94991;-87
2023/04/15 00:38:22;;;;;;;;;;;10.60;99.90;10.90;98693.00;;;;340799;28;91867;-86
2023/04/15 00:38:34;;;;;;;;;;;10.60;99.90;10.90;98688.00;;;;340651;28;96385;-88
2023/04/15 00:38:46;;;;;;;;;;;10.60;99.90;10.90;98688.00;;;;342283;28;91144;-87
2023/04/15 00:38:57;;;;;;;;;;;10.60;99.90;10.90;98690.00;;;;339605;28;92248;-87
2023/04/15 00:39:10;;;;;;;;;;;10.60;99.90;10.90;98686.00;;;;340773;28;91338;-87
2023/04/15 00:39:21;;;;;;;;;;;10.60;99.90;10.90;98698.00;;;;341106;28;93251;-88
2023/04/15 00:39:33;;;;;;;;;;;10.60;99.90;10.80;98694.00;;;;340523;28;91896;-87
2023/04/15 00:39:45;;;;;;;;;;;10.60;99.90;10.80;98693.00;;;;339269;28;93533;-88
2023/04/15 00:39:57;;;;;;;;;;;10.60;99.90;10.80;98686.00;;;;339521;28;92854;-87
2023/04/15 00:40:11;;;;;;;;;;;10.50;99.90;10.80;98691.00;;;;339797;28;94094;-87
2023/04/15 00:40:23;;;;;;;;;;;10.60;99.90;10.80;98696.00;;;;339221;28;91078;-86
2023/04/15 00:40:35;;;;;;;;;;;10.50;99.90;10.80;98691.00;;;;339398;28;94586;-87
2023/04/15 00:40:47;;;;;;;;;;;10.50;99.90;10.80;98694.00;;;;340630;28;91892;-87
2023/04/15 00:40:59;;;;;;;;;;;10.50;99.90;10.90;98691.00;;;;341997;28;93678;-87
2023/04/15 00:41:10;;;;;;;;;;;10.50;99.90;10.80;98693.00;;;;339130;28;92154;-88
2023/04/15 00:41:22;;;;;;;;;;;10.60;99.90;10.80;98691.00;;;;339445;28;92292;-87
2023/04/15 00:41:38;;;;;;;;;;;10.60;99.90;10.90;98690.00;;;;341930;28;91241;-88
2023/04/15 00:41:49;;;;;;;;;;;10.50;99.90;10.80;98691.00;;;;339424;28;93592;-88
2023/04/15 00:42:03;;;;;;;;;;;10.60;99.90;10.80;98688.00;;;;339297;28;92891;-88
2023/04/15 00:42:15;;;;;;;;;;;10.50;99.90;10.80;98688.00;;;;339528;28;94540;-88
2023/04/15 00:42:27;;;;;;;;;;;10.50;99.90;10.80;98687.00;;;;339178;28;91189;-88
2023/04/15 00:42:39;;;;;;;;;;;10.50;99.90;10.80;98687.00;;;;339025;28;94892;-87
2023/04/15 00:42:51;;;;;;;;;;;10.50;99.90;10.80;98688.00;;;;337884;28;91952;-88
2023/04/15 00:43:03;;;;;;;;;;;10.60;99.90;10.90;98687.00;;;;336712;28;93982;-87
2023/04/15 00:43:15;;;;;;;;;;;10.50;99.90;11.00;98686.00;;;;339082;28;91925;-88
2023/04/15 00:43:27;;;;;;;;;;;10.50;99.90;11.00;98685.00;;;;337777;28;93370;-87
2023/04/15 00:43:39;;;;;;;;;;;10.50;99.90;11.00;98684.00;;;;340065;28;91988;-87
2023/04/15 00:43:51;;;;;;;;;;;10.60;99.90;10.90;98684.00;;;;341600;28;95812;-87
2023/04/15 00:44:02;;;;;;;;;;;10.50;99.90;11.00;98679.00;;;;338819;28;92939;-87
2023/04/15 00:44:14;;;;;;;;;;;10.50;99.90;11.00;98696.00;;;;337561;28;95660;-87
2023/04/15 00:44:26;;;;;;;;;;;10.50;99.90;11.00;98688.00;;;;337381;28;92236;-87
2023/04/15 00:44:38;;;;;;;;;;;10.50;99.90;11.00;98684.00;;;;336373;28;94694;-87
2023/04/15 00:44:50;;;;;;;;;;;10.60;99.90;11.00;98692.00;;;;338710;28;91967;-87
2023/04/15 00:45:02;;;;;;;;;;;10.50;99.90;11.10;98695.00;;;;338916;28;94649;-87
2023/04/15 00:45:14;;;;;;;;;;;10.50;99.90;11.20;98685.00;;;;337429;28;91916;-87
2023/04/15 00:45:27;;;;;;;;;;;10.60;99.90;11.20;98690.00;;;;339092;28;93445;-87
2023/04/15 00:45:38;;;;;;;;;;;10.60;99.90;11.30;98684.00;;;;340118;28;91181;-87
2023/04/15 00:45:50;;;;;;;;;;;10.60;99.90;11.30;98684.00;;;;338816;28;96032;-87
2023/04/15 00:46:03;;;;;;;;;;;10.60;99.90;11.30;98688.00;;;;337296;28;92999;-87
2023/04/15 00:46:15;;;;;;;;;;;10.60;99.90;11.20;98685.00;;;;337530;28;96964;-87
2023/04/15 00:46:28;;;;;;;;;;;10.60;99.90;11.10;98688.00;;;;337492;28;91700;-87
2023/04/15 00:46:40;;;;;;;;;;;10.60;99.90;11.10;98686.00;;;;337627;28;94768;-87
2023/04/15 00:46:52;;;;;;;;;;;10.60;99.90;11.10;98686.00;;;;337383;28;92005;-87
2023/04/15 00:47:04;;;;;;;;;;;10.60;99.90;11.10;98695.00;;;;337517;28;95749;-87
2023/04/15 00:47:16;;;;;;;;;;;10.70;99.90;11.10;98679.00;;;;338701;28;92020;-86
2023/04/15 00:47:28;;;;;;;;;;;10.70;99.90;11.10;98684.00;;;;339029;28;93089;-87
2023/04/15 00:47:41;;;;;;;;;;;10.60;99.90;11.10;98689.00;;;;337479;28;91806;-87
2023/04/15 00:47:53;;;;;;;;;;;10.70;99.90;11.10;98685.00;;;;336327;28;93089;-87
2023/04/15 00:48:04;;;;;;;;;;;10.70;99.90;11.10;98685.00;;;;337387;28;92913;-87
2023/04/15 00:48:16;;;;;;;;;;;10.70;99.90;11.10;98684.00;;;;337943;28;95844;-87
2023/04/15 00:48:28;;;;;;;;;;;10.60;99.90;11.10;98685.00;;;;336381;28;92072;-87
2023/04/15 00:48:41;;;;;;;;;;;10.60;99.90;11.10;98682.00;;;;337987;28;95831;-87
2023/04/15 00:48:53;;;;;;;;;;;10.70;99.90;11.00;98681.00;;;;336598;28;91876;-87
2023/04/15 00:49:05;;;;;;;;;;;10.70;99.90;11.00;98680.00;;;;337006;28;93229;-87
2023/04/15 00:49:18;;;;;;;;;;;10.70;99.90;11.00;98683.00;;;;336768;28;91693;-87
2023/04/15 00:49:31;;;;;;;;;;;10.70;99.90;11.00;98688.00;;;;335435;29;96625;-87
2023/04/15 00:49:42;;;;;;;;;;;10.60;99.90;10.90;98684.00;;;;337965;28;92026;-87
2023/04/15 00:49:54;;;;;;;;;;;10.60;99.90;10.90;98681.00;;;;337982;28;94850;-87
2023/04/15 00:50:07;;;;;;;;;;;10.60;99.90;10.90;98686.00;;;;336572;28;92813;-87
2023/04/15 00:50:19;;;;;;;;;;;10.60;99.90;10.90;98681.00;;;;338248;28;93210;-87
2023/04/15 00:50:30;;;;;;;;;;;10.60;99.90;11.00;98688.00;;;;339318;28;91116;-87
2023/04/15 00:50:42;;;;;;;;;;;10.60;99.90;11.00;98679.00;;;;340989;28;95959;-87
2023/04/15 00:50:54;;;;;;;;;;;10.60;99.90;11.00;98680.00;;;;339374;28;91857;-87
2023/04/15 00:51:06;;;;;;;;;;;10.60;99.90;10.90;98672.00;;;;342123;28;96268;-87
2023/04/15 00:51:18;;;;;;;;;;;10.60;99.90;10.90;98679.00;;;;341921;28;91953;-87
2023/04/15 00:51:32;;;;;;;;;;;10.60;99.90;10.90;98678.00;;;;342357;28;93526;-87
2023/04/15 00:51:44;;;;;;;;;;;10.60;99.90;10.90;98681.00;;;;339275;28;92068;-86
2023/04/15 00:51:56;;;;;;;;;;;10.60;99.90;10.90;98682.00;;;;339697;28;93114;-87
2023/04/15 00:52:08;;;;;;;;;;;10.60;99.90;10.80;98680.00;;;;337991;28;92953;-87
2023/04/15 00:52:20;;;;;;;;;;;10.60;99.90;10.80;98682.00;;;;339461;28;94917;-87
2023/04/15 00:52:31;;;;;;;;;;;10.60;99.90;10.80;98675.00;;;;337865;28;91176;-86
2023/04/15 00:52:43;;;;;;;;;;;10.60;99.90;10.80;98674.00;;;;337036;28;96049;-87
2023/04/15 00:52:55;;;;;;;;;;;10.60;99.90;10.80;98676.00;;;;339175;28;91202;-87
2023/04/15 00:53:07;;;;;;;;;;;10.60;99.90;10.80;98683.00;;;;338165;28;93330;-86
2023/04/15 00:53:19;;;;;;;;;;;10.60;99.90;10.80;98684.00;;;;337952;28;91897;-86
2023/04/15 00:53:31;;;;;;;;;;;10.50;99.90;10.80;98680.00;;;;339612;28;91986;-87
2023/04/15 00:53:42;;;;;;;;;;;10.50;99.90;10.90;98684.00;;;;339267;28;91966;-87
2023/04/15 00:53:54;;;;;;;;;;;10.50;99.90;10.90;98677.00;;;;339450;28;95982;-87
2023/04/15 00:54:06;;;;;;;;;;;10.50;99.90;11.00;98675.00;;;;337837;28;92901;-87
2023/04/15 00:54:18;;;;;;;;;;;10.50;99.90;11.00;98678.00;;;;338293;28;94359;-87
2023/04/15 00:54:30;;;;;;;;;;;10.60;99.90;11.00;98669.00;;;;339296;28;91832;-87
2023/04/15 00:54:42;;;;;;;;;;;10.50;99.90;11.00;98671.00;;;;336941;28;91087;-87
2023/04/15 00:54:54;;;;;;;;;;;10.60;99.90;11.00;98674.00;;;;337955;28;91969;-87
2023/04/15 00:55:07;;;;;;;;;;;10.50;99.90;11.00;98679.00;;;;339239;28;92425;-87
2023/04/15 00:55:19;;;;;;;;;;;10.60;99.90;11.00;98684.00;;;;337809;28;91909;-87
2023/04/15 00:55:31;;;;;;;;;;;10.50;99.90;11.00;98674.00;;;;337932;28;94101;-87
2023/04/15 00:55:43;;;;;;;;;;;10.60;99.90;11.00;98676.00;;;;337743;28;91932;-88
2023/04/15 00:55:55;;;;;;;;;;;10.60;99.90;11.00;98678.00;;;;336885;28;91829;-88
2023/04/15 00:56:06;;;;;;;;;;;10.60;99.90;10.90;98676.00;;;;339057;28;92254;-87
2023/04/15 00:56:19;;;;;;;;;;;10.60;99.90;10.90;98680.00;;;;339233;28;95339;-88
2023/04/15 00:56:34;;;;;;;;;;;10.60;99.90;10.80;98674.00;;;;337812;28;91920;-87
2023/04/15 00:56:45;;;;;;;;;;;10.60;99.90;10.80;98681.00;;;;337981;28;96338;-87
2023/04/15 00:56:58;;;;;;;;;;;10.60;99.90;10.80;98681.00;;;;339116;28;91808;-88
2023/04/15 00:57:10;;;;;;;;;;;10.60;99.90;10.70;98672.00;;;;339141;28;96060;-87
2023/04/15 00:57:22;;;;;;;;;;;10.60;99.90;10.80;98671.00;;;;336369;28;92007;-87
2023/04/15 00:57:34;;;;;;;;;;;10.60;99.90;10.70;98677.00;;;;339174;28;96481;-87
2023/04/15 00:57:46;;;;;;;;;;;10.60;99.90;10.80;98672.00;;;;337538;28;92014;-87
2023/04/15 00:57:58;;;;;;;;;;;10.60;99.90;10.80;98676.00;;;;335248;29;95714;-87
2023/04/15 00:58:09;;;;;;;;;;;10.60;99.90;10.80;98674.00;;;;337523;28;92997;-88
2023/04/15 00:58:21;;;;;;;;;;;10.60;99.90;10.80;98684.00;;;;337738;28;96717;-87
2023/04/15 00:58:33;;;;;;;;;;;10.60;99.90;10.80;98683.00;;;;336280;28;92053;-88
2023/04/15 00:58:45;;;;;;;;;;;10.60;99.90;10.80;98683.00;;;;337917;28;93110;-87
2023/04/15 00:58:57;;;;;;;;;;;10.50;99.90;10.80;98684.00;;;;339007;28;91868;-88
2023/04/15 00:59:10;;;;;;;;;;;10.60;99.90;10.80;98685.00;;;;336514;28;93529;-86
2023/04/15 00:59:21;;;;;;;;;;;10.50;99.90;10.70;98682.00;;;;339055;28;91973;-89
2023/04/15 00:59:34;;;;;;;;;;;10.50;99.90;10.70;98685.00;;;;337839;28;96012;-87
2023/04/15 00:59:46;;;;;;;;;;;10.50;99.90;10.80;98684.00;;;;338187;28;92220;-88
2023/04/15 00:59:57;;;;;;;;;;;10.50;99.90;10.70;98680.00;;;;339237;28;95560;-88
2023/04/15 01:00:10;;;;;;;;;;;10.50;99.90;10.70;98689.00;;;;336231;28;93019;-88